Time;durP1;ratioP1;P1;durP2;ratioP2;P2;SDS_P1;SDS_P2;PMS_P1;PMS_P2;Temp;Humidity;BMP_temperature;BMP_pressure;BME280_temperature;BME280_humidity;BME280_pressure;Samples;Min_cycle;Max_cycle;Signal;HPM_P1;HPM_P2
2023/02/16 00:01:53;;;;;;;24.27;13.80;;;1.90;96.80;;;;;;5033628;28;20388;-68
2023/02/16 00:04:28;;;;;;;21.55;12.63;;;1.70;97.00;;;;;;5034533;28;20079;-67
2023/02/16 00:06:54;;;;;;;20.15;12.00;;;1.90;97.30;;;;;;5032597;28;20108;-68
2023/02/16 00:09:21;;;;;;;21.25;12.60;;;1.90;97.30;;;;;;5035335;28;20044;-67
2023/02/16 00:14:34;;;;;;;20.20;12.38;;;1.80;97.10;;;;;;5031739;28;20036;-67
2023/02/16 00:17:00;;;;;;;20.08;12.25;;;1.90;97.50;;;;;;5033154;28;20029;-67
2023/02/16 00:19:29;;;;;;;20.33;11.27;;;2.10;96.90;;;;;;5035953;28;20438;-68
2023/02/16 00:21:59;;;;;;;19.15;11.40;;;2.40;96.30;;;;;;5035464;28;20025;-68
2023/02/16 00:24:26;;;;;;;18.20;10.27;;;2.50;95.70;;;;;;5032991;28;20025;-67
2023/02/16 00:26:53;;;;;;;18.35;10.68;;;2.70;95.00;;;;;;5035719;28;20330;-68
2023/02/16 00:29:31;;;;;;;18.75;10.27;;;2.80;94.40;;;;;;5033503;28;20151;-68
2023/02/16 00:31:58;;;;;;;16.90;10.50;;;2.90;93.90;;;;;;5035083;28;20029;-67
2023/02/16 00:34:25;;;;;;;25.33;12.73;;;3.00;93.80;;;;;;5034475;28;20033;-67
2023/02/16 00:36:51;;;;;;;21.65;11.48;;;2.80;94.30;;;;;;5034981;28;20030;-67
2023/02/16 00:39:16;;;;;;;19.48;11.77;;;2.60;94.90;;;;;;5035679;28;20033;-65
2023/02/16 00:41:52;;;;;;;25.00;12.77;;;2.40;95.50;;;;;;5036726;28;20441;-66
2023/02/16 00:44:31;;;;;;;20.42;12.35;;;2.10;96.20;;;;;;5031774;28;20037;-66
2023/02/16 00:47:02;;;;;;;20.92;11.55;;;1.90;97.00;;;;;;5034156;28;20051;-66
2023/02/16 00:49:28;;;;;;;23.27;11.93;;;1.80;97.40;;;;;;5035192;28;20022;-67
2023/02/16 00:51:54;;;;;;;16.70;10.27;;;1.80;97.60;;;;;;5035097;28;20033;-67
2023/02/16 00:54:19;;;;;;;19.70;10.23;;;1.90;97.60;;;;;;5026862;28;20033;-67
2023/02/16 00:56:45;;;;;;;17.23;9.85;;;2.00;97.70;;;;;;5034539;28;20041;-67
2023/02/16 00:59:17;;;;;;;17.80;9.30;;;2.10;97.30;;;;;;5033651;28;20108;-67
2023/02/16 01:01:43;;;;;;;20.90;9.55;;;2.30;97.20;;;;;;5034285;28;20065;-67
2023/02/16 01:04:16;;;;;;;19.70;10.68;;;2.40;97.20;;;;;;5032479;28;20053;-68
2023/02/16 01:12:15;;;;;;;15.25;8.75;;;2.90;95.40;;;;;;5034753;28;20425;-67
2023/02/16 01:14:43;;;;;;;18.38;9.88;;;2.80;95.80;;;;;;5028821;28;20033;-67
2023/02/16 01:17:10;;;;;;;19.83;9.85;;;2.70;96.20;;;;;;5033391;28;20052;-67
2023/02/16 01:19:36;;;;;;;19.27;10.07;;;2.80;96.60;;;;;;5033691;28;20040;-68
2023/02/16 01:22:02;;;;;;;19.52;10.23;;;2.80;96.40;;;;;;5034947;28;20022;-67
2023/02/16 01:24:27;;;;;;;18.92;9.98;;;2.80;96.70;;;;;;5033672;28;20397;-68
2023/02/16 01:26:53;;;;;;;16.10;9.38;;;3.00;96.40;;;;;;5032353;28;20030;-69
2023/02/16 01:29:20;;;;;;;18.55;10.55;;;3.00;96.00;;;;;;5031789;28;20116;-66
2023/02/16 01:31:47;;;;;;;16.55;9.60;;;2.90;96.10;;;;;;5008929;28;20067;-68
2023/02/16 01:34:13;;;;;;;18.08;10.05;;;2.90;96.20;;;;;;5033532;28;20040;-68
2023/02/16 01:36:45;;;;;;;20.20;10.50;;;2.70;96.40;;;;;;5034061;28;20087;-68
2023/02/16 01:39:16;;;;;;;18.15;10.55;;;2.80;96.60;;;;;;5033445;28;20041;-66
2023/02/16 01:41:51;;;;;;;18.08;10.38;;;2.90;96.30;;;;;;5025297;28;20056;-68
2023/02/16 01:44:24;;;;;;;21.02;10.38;;;3.00;96.20;;;;;;5031898;28;20017;-68
2023/02/16 01:46:55;;;;;;;18.92;10.23;;;3.10;96.40;;;;;;5033517;28;20017;-68
2023/02/16 01:49:21;;;;;;;17.60;9.05;;;3.40;96.10;;;;;;5033805;28;20030;-68
2023/02/16 01:52:04;;;;;;;18.35;10.38;;;3.30;94.90;;;;;;5034772;28;20029;-67
2023/02/16 01:55:11;;;;;;;16.75;9.77;;;3.10;95.70;;;;;;5032578;28;20040;-67
2023/02/16 01:57:43;;;;;;;15.20;8.90;;;3.30;95.80;;;;;;5029712;28;20049;-68
2023/02/16 02:00:20;;;;;;;17.67;9.95;;;3.20;95.70;;;;;;5032748;28;20045;-68
2023/02/16 02:02:51;;;;;;;16.80;9.40;;;3.10;96.00;;;;;;5021594;28;20373;-68
2023/02/16 02:05:43;;;;;;;21.00;10.10;;;3.20;96.10;;;;;;5036711;28;20322;-68
2023/02/16 02:08:35;;;;;;;22.55;10.60;;;3.40;96.00;;;;;;5031129;28;20040;-68
2023/02/16 02:11:17;;;;;;;18.88;9.73;;;3.50;95.80;;;;;;5036337;28;20291;-68
2023/02/16 02:13:57;;;;;;;16.08;8.77;;;3.40;95.60;;;;;;5037552;28;20382;-68
2023/02/16 02:16:25;;;;;;;18.35;9.55;;;3.20;95.90;;;;;;5010853;28;20095;-68
2023/02/16 02:18:51;;;;;;;18.58;9.73;;;3.40;96.00;;;;;;5032647;28;20032;-68
2023/02/16 02:24:58;;;;;;;16.85;8.85;;;4.10;93.80;;;;;;5036409;28;20112;-68
2023/02/16 02:27:37;;;;;;;18.67;9.80;;;3.80;93.50;;;;;;5038336;28;20318;-68
2023/02/16 02:30:45;;;;;;;19.38;9.45;;;3.70;94.30;;;;;;5035306;28;20013;-67
2023/02/16 02:33:47;;;;;;;19.50;9.80;;;3.70;94.10;;;;;;4992951;28;21012;-68
2023/02/16 02:36:44;;;;;;;16.33;9.30;;;3.90;93.90;;;;;;5035136;28;20480;-67
2023/02/16 02:39:25;;;;;;;15.38;8.90;;;4.10;93.00;;;;;;5037000;28;20425;-67
2023/02/16 02:42:28;;;;;;;16.63;8.65;;;3.90;93.30;;;;;;5027709;28;20088;-68
2023/02/16 02:45:03;;;;;;;19.77;10.30;;;3.50;94.20;;;;;;5003992;28;20038;-68
2023/02/16 02:47:46;;;;;;;16.80;9.20;;;3.70;94.20;;;;;;5036361;28;20022;-68
2023/02/16 02:50:30;;;;;;;19.52;10.25;;;3.90;93.50;;;;;;5032886;28;20310;-68
2023/02/16 02:53:02;;;;;;;20.10;9.60;;;3.70;93.90;;;;;;5036542;28;20026;-68
2023/02/16 03:01:07;;;;;;;18.75;9.73;;;3.60;94.50;;;;;;5023815;28;20037;-67
2023/02/16 03:03:39;;;;;;;17.52;9.32;;;3.40;94.80;;;;;;5035312;28;20025;-67
2023/02/16 03:06:14;;;;;;;19.20;9.55;;;3.30;95.30;;;;;;5032180;28;20032;-70
2023/02/16 03:08:43;;;;;;;17.83;9.40;;;3.00;95.70;;;;;;5033733;28;20022;-66
2023/02/16 03:14:24;;;;;;;21.42;10.90;;;3.00;96.50;;;;;;5033477;28;20105;-67
2023/02/16 03:30:56;;;;;;;15.10;9.00;;;3.00;96.70;;;;;;5033973;28;20033;-67
2023/02/16 03:33:24;;;;;;;21.65;10.65;;;3.00;96.80;;;;;;5036607;28;20044;-66
2023/02/16 03:35:50;;;;;;;20.08;10.02;;;2.90;96.90;;;;;;5035445;28;20030;-66
2023/02/16 03:38:16;;;;;;;18.00;9.82;;;2.80;97.00;;;;;;5036338;28;20112;-67
2023/02/16 03:40:43;;;;;;;18.48;9.43;;;2.80;97.10;;;;;;5036185;28;20109;-66
2023/02/16 03:43:09;;;;;;;17.92;9.35;;;2.80;97.10;;;;;;5036114;28;20505;-67
2023/02/16 03:45:40;;;;;;;17.42;9.23;;;2.90;96.90;;;;;;5018026;28;20108;-67
2023/02/16 03:48:07;;;;;;;16.92;9.75;;;2.90;97.00;;;;;;5028046;28;20052;-67
2023/02/16 03:50:32;;;;;;;19.70;10.82;;;2.90;97.10;;;;;;5035273;28;20414;-67
2023/02/16 03:53:07;;;;;;;16.15;9.38;;;2.90;97.00;;;;;;5018280;28;20037;-67
2023/02/16 03:55:38;;;;;;;21.02;10.13;;;2.80;97.10;;;;;;5035931;28;20044;-67
2023/02/16 03:58:06;;;;;;;17.52;9.38;;;2.70;97.30;;;;;;5035262;28;20201;-67
2023/02/16 04:00:33;;;;;;;18.67;9.85;;;2.60;97.60;;;;;;5034443;28;20026;-67
2023/02/16 04:02:58;;;;;;;19.52;10.15;;;2.70;97.60;;;;;;5035289;28;20044;-66
2023/02/16 04:05:24;;;;;;;16.80;9.73;;;2.60;97.50;;;;;;5029266;28;20410;-65
2023/02/16 04:07:50;;;;;;;17.10;9.57;;;2.70;97.60;;;;;;5036474;28;20394;-66
2023/02/16 04:10:16;;;;;;;22.02;10.35;;;2.70;97.60;;;;;;5037234;28;20071;-67
2023/02/16 04:12:45;;;;;;;20.00;10.48;;;2.70;97.50;;;;;;5036011;28;20112;-67
2023/02/16 04:15:15;;;;;;;16.83;10.00;;;2.60;97.80;;;;;;5034078;28;20033;-68
2023/02/16 04:17:43;;;;;;;18.80;9.55;;;2.60;97.90;;;;;;5033572;28;20313;-66
2023/02/16 04:20:12;;;;;;;20.38;10.80;;;2.60;97.80;;;;;;5027700;28;20032;-68
2023/02/16 04:22:38;;;;;;;20.35;10.23;;;2.70;97.60;;;;;;5033655;28;20025;-67
2023/02/16 04:25:04;;;;;;;17.77;10.30;;;2.60;97.80;;;;;;5009057;28;20030;-67
2023/02/16 04:27:29;;;;;;;18.02;10.13;;;2.60;97.80;;;;;;5033018;28;20026;-66
2023/02/16 04:30:00;;;;;;;18.55;9.80;;;2.50;97.80;;;;;;5035593;28;20032;-66
2023/02/16 04:32:28;;;;;;;19.85;10.48;;;2.40;98.00;;;;;;5029721;28;20407;-67
2023/02/16 04:34:58;;;;;;;20.92;10.18;;;2.30;98.00;;;;;;5010157;28;20108;-66
2023/02/16 04:37:24;;;;;;;17.98;10.20;;;2.40;98.00;;;;;;5023193;28;20068;-66
2023/02/16 04:39:50;;;;;;;17.17;9.82;;;2.60;98.00;;;;;;5006466;28;21808;-66
2023/02/16 04:42:17;;;;;;;18.00;9.45;;;2.60;98.00;;;;;;5030692;28;20032;-66
2023/02/16 04:44:42;;;;;;;18.52;10.13;;;2.60;98.00;;;;;;5022396;28;20029;-67
2023/02/16 04:47:08;;;;;;;19.35;9.98;;;2.50;97.90;;;;;;5029075;28;20421;-68
2023/02/16 04:49:33;;;;;;;18.35;10.43;;;2.40;98.00;;;;;;5027558;28;20373;-68
2023/02/16 04:52:00;;;;;;;18.25;10.02;;;2.30;98.00;;;;;;5003124;28;20569;-68
2023/02/16 04:54:26;;;;;;;18.90;10.15;;;2.20;98.00;;;;;;5019933;28;20026;-68
2023/02/16 04:56:52;;;;;;;21.60;10.35;;;2.10;98.00;;;;;;5019780;28;20065;-68
2023/02/16 04:59:18;;;;;;;20.25;10.43;;;2.00;98.00;;;;;;5031638;28;20033;-69
2023/02/16 05:01:43;;;;;;;18.60;10.13;;;1.70;98.00;;;;;;5035600;28;20334;-68
2023/02/16 05:04:09;;;;;;;19.95;10.98;;;1.70;98.00;;;;;;5035746;28;20029;-68
2023/02/16 05:06:38;;;;;;;18.00;9.95;;;1.60;98.00;;;;;;5035164;28;20033;-69
2023/02/16 05:09:05;;;;;;;18.17;9.95;;;1.60;98.00;;;;;;5035777;28;20018;-69
2023/02/16 05:17:07;;;;;;;18.10;9.48;;;1.40;98.00;;;;;;5020391;28;20095;-68
2023/02/16 05:19:33;;;;;;;20.23;10.32;;;1.40;98.00;;;;;;5034875;28;20116;-68
2023/02/16 05:21:59;;;;;;;20.27;10.15;;;1.50;98.00;;;;;;5035583;28;20156;-68
2023/02/16 05:24:24;;;;;;;22.65;11.57;;;1.50;98.00;;;;;;5016720;28;20113;-69
2023/02/16 05:26:50;;;;;;;17.60;9.75;;;1.70;98.00;;;;;;5034664;28;20029;-68
2023/02/16 05:29:15;;;;;;;19.00;10.38;;;1.70;98.00;;;;;;5032909;28;20017;-68
2023/02/16 05:31:41;;;;;;;20.15;9.95;;;1.70;98.00;;;;;;5034356;28;20036;-68
2023/02/16 05:34:07;;;;;;;16.88;9.98;;;1.60;98.00;;;;;;5034658;28;20022;-68
2023/02/16 05:36:32;;;;;;;20.55;11.30;;;1.60;98.00;;;;;;5034626;28;20040;-68
2023/02/16 05:38:58;;;;;;;17.20;10.10;;;1.70;98.00;;;;;;5034101;28;20036;-69
2023/02/16 05:41:26;;;;;;;16.88;9.38;;;1.70;98.00;;;;;;5033524;28;20064;-68
2023/02/16 05:43:57;;;;;;;19.77;9.98;;;1.60;98.00;;;;;;5034012;28;20030;-68
2023/02/16 05:46:24;;;;;;;18.55;10.55;;;1.60;98.00;;;;;;5034794;28;20028;-68
2023/02/16 05:48:50;;;;;;;17.02;9.88;;;1.50;98.00;;;;;;5034657;28;20034;-68
2023/02/16 05:51:16;;;;;;;17.42;9.38;;;1.60;98.00;;;;;;5017400;28;20028;-68
2023/02/16 05:53:42;;;;;;;16.35;9.20;;;1.70;98.00;;;;;;5034922;28;20373;-68
2023/02/16 05:56:08;;;;;;;19.27;9.80;;;1.60;98.00;;;;;;5034230;28;20337;-68
2023/02/16 05:58:33;;;;;;;25.13;14.07;;;1.60;98.00;;;;;;5012947;28;20030;-68
2023/02/16 06:00:59;;;;;;;20.55;12.02;;;1.50;98.00;;;;;;5032948;28;20033;-69
2023/02/16 06:03:25;;;;;;;21.95;11.77;;;1.50;98.00;;;;;;5034106;28;20049;-68
2023/02/16 06:05:59;;;;;;;20.50;12.48;;;1.40;98.00;;;;;;5034657;28;20025;-68
2023/02/16 06:08:25;;;;;;;22.10;12.75;;;1.20;98.00;;;;;;5019281;28;20025;-68
2023/02/16 06:10:52;;;;;;;20.88;11.30;;;1.20;98.00;;;;;;5035711;28;20168;-68
2023/02/16 06:13:19;;;;;;;25.23;13.27;;;1.30;98.00;;;;;;5034784;28;20406;-68
2023/02/16 06:15:45;;;;;;;17.05;10.60;;;1.40;98.00;;;;;;5029507;28;20038;-68
2023/02/16 06:18:11;;;;;;;24.15;15.90;;;1.60;98.00;;;;;;5033382;28;20322;-68
2023/02/16 06:20:38;;;;;;;27.23;16.70;;;1.90;98.00;;;;;;5034811;28;20030;-68
2023/02/16 06:23:05;;;;;;;21.42;13.13;;;1.80;98.00;;;;;;5035058;28;20087;-67
2023/02/16 06:25:31;;;;;;;27.58;16.65;;;1.70;98.00;;;;;;5034224;28;20040;-67
2023/02/16 06:27:56;;;;;;;23.65;13.98;;;1.70;98.00;;;;;;5032788;28;20021;-67
2023/02/16 06:30:23;;;;;;;17.23;10.40;;;1.60;98.00;;;;;;5032685;28;20036;-67
2023/02/16 06:32:48;;;;;;;20.13;11.00;;;1.50;98.00;;;;;;5033885;28;20096;-67
2023/02/16 06:35:14;;;;;;;20.73;12.93;;;1.30;98.00;;;;;;5034807;28;20036;-67
2023/02/16 06:37:41;;;;;;;17.10;10.73;;;1.20;98.00;;;;;;5043925;28;20144;-68
2023/02/16 06:40:13;;;;;;;19.33;10.57;;;1.20;98.00;;;;;;5034445;28;20072;-68
2023/02/16 06:42:39;;;;;;;16.98;10.43;;;1.40;98.00;;;;;;5016285;28;20112;-68
2023/02/16 06:45:05;;;;;;;18.42;10.10;;;1.60;98.00;;;;;;5033444;28;20101;-68
2023/02/16 06:47:30;;;;;;;18.50;10.07;;;1.60;98.00;;;;;;5014930;28;20121;-68
2023/02/16 06:49:56;;;;;;;20.13;12.07;;;1.50;98.00;;;;;;5034517;28;20036;-68
2023/02/16 06:52:21;;;;;;;17.27;10.10;;;1.50;98.00;;;;;;5038018;28;20042;-68
2023/02/16 06:54:47;;;;;;;19.33;11.30;;;1.50;98.00;;;;;;5039075;28;20111;-68
2023/02/16 06:57:12;;;;;;;24.88;10.52;;;1.40;98.00;;;;;;5018160;28;20124;-68
2023/02/16 06:59:38;;;;;;;20.98;11.90;;;1.40;98.00;;;;;;5035959;28;20045;-68
2023/02/16 07:02:04;;;;;;;18.65;10.25;;;1.50;98.00;;;;;;5035734;28;20067;-68
2023/02/16 07:04:29;;;;;;;17.27;10.02;;;1.60;98.00;;;;;;5036131;28;20036;-68
2023/02/16 07:06:55;;;;;;;19.58;10.02;;;1.70;98.00;;;;;;5037180;28;20040;-68
2023/02/16 07:09:21;;;;;;;17.02;9.73;;;1.70;98.00;;;;;;5019292;28;20021;-68
2023/02/16 07:11:46;;;;;;;15.20;9.35;;;1.60;98.00;;;;;;5018172;28;20049;-67
2023/02/16 07:14:12;;;;;;;18.40;8.93;;;1.60;98.00;;;;;;5034875;28;20072;-68
2023/02/16 07:16:37;;;;;;;14.90;8.30;;;1.60;98.00;;;;;;5036734;28;20061;-67
2023/02/16 07:19:04;;;;;;;15.60;9.38;;;1.70;98.00;;;;;;5038214;28;20108;-68
2023/02/16 07:21:32;;;;;;;13.95;8.57;;;1.70;98.00;;;;;;5038151;28;20437;-68
2023/02/16 07:23:57;;;;;;;19.20;10.23;;;1.80;97.80;;;;;;5038653;28;20082;-68
2023/02/16 07:26:23;;;;;;;23.05;12.30;;;1.90;97.70;;;;;;5037651;28;20410;-68
2023/02/16 07:28:48;;;;;;;19.33;10.43;;;2.00;97.60;;;;;;5038373;28;20083;-67
2023/02/16 07:31:15;;;;;;;16.10;9.00;;;2.20;96.90;;;;;;5037049;28;20155;-68
2023/02/16 07:33:41;;;;;;;16.00;8.15;;;2.20;96.90;;;;;;5020700;28;20103;-67
2023/02/16 07:36:08;;;;;;;16.75;9.07;;;2.40;96.30;;;;;;5038387;28;20112;-68
2023/02/16 07:38:34;;;;;;;15.55;8.80;;;2.60;95.90;;;;;;5020536;28;20105;-67
2023/02/16 07:41:00;;;;;;;13.95;8.38;;;2.60;96.20;;;;;;5037500;28;20379;-67
2023/02/16 07:43:25;;;;;;;13.50;7.78;;;2.70;96.00;;;;;;5038101;28;20457;-68
2023/02/16 07:45:51;;;;;;;12.75;7.05;;;2.80;95.80;;;;;;5036835;28;20026;-68
2023/02/16 07:48:20;;;;;;;12.43;7.38;;;2.80;95.90;;;;;;5038145;28;20100;-67
2023/02/16 07:50:45;;;;;;;13.45;6.80;;;2.80;96.10;;;;;;5037761;28;20091;-68
2023/02/16 07:53:11;;;;;;;12.85;7.45;;;3.00;96.10;;;;;;5037815;28;20029;-69
2023/02/16 07:55:41;;;;;;;13.57;7.20;;;3.10;95.30;;;;;;5037017;28;20335;-68
2023/02/16 07:58:07;;;;;;;17.23;9.50;;;3.30;94.60;;;;;;5037773;28;20037;-68
2023/02/16 08:00:33;;;;;;;15.18;8.45;;;3.70;93.70;;;;;;5036574;28;20091;-67
2023/02/16 08:02:59;;;;;;;12.70;7.50;;;4.30;90.00;;;;;;5036882;28;20446;-67
2023/02/16 08:05:25;;;;;;;10.85;6.30;;;4.80;88.60;;;;;;5037643;28;20022;-67
2023/02/16 08:07:53;;;;;;;10.80;6.32;;;5.00;89.10;;;;;;5037602;28;20426;-68
2023/02/16 08:10:20;;;;;;;12.05;6.45;;;5.30;87.50;;;;;;5036372;28;20410;-67
2023/02/16 08:12:46;;;;;;;11.60;5.72;;;5.50;86.10;;;;;;5037306;28;20029;-68
2023/02/16 08:15:12;;;;;;;11.02;5.85;;;5.80;85.10;;;;;;5036379;28;20036;-68
2023/02/16 08:17:38;;;;;;;11.88;6.22;;;6.00;85.00;;;;;;5037196;28;20407;-67
2023/02/16 08:20:05;;;;;;;10.80;5.97;;;6.40;81.50;;;;;;5034172;28;20030;-67
2023/02/16 08:22:31;;;;;;;10.00;5.40;;;7.10;80.80;;;;;;5033945;28;20116;-67
2023/02/16 08:24:58;;;;;;;10.32;5.60;;;8.70;75.00;;;;;;5034204;28;20120;-68
2023/02/16 08:27:24;;;;;;;10.20;5.78;;;10.50;69.90;;;;;;5035358;28;20053;-68
2023/02/16 08:29:50;;;;;;;9.27;5.18;;;11.50;69.20;;;;;;5035748;28;20483;-68
2023/02/16 08:32:16;;;;;;;9.25;5.57;;;12.80;66.40;;;;;;5037109;28;20101;-68
2023/02/16 08:34:41;;;;;;;10.15;5.70;;;14.20;61.60;;;;;;5037037;28;20445;-68
2023/02/16 08:37:11;;;;;;;9.60;5.93;;;14.90;58.20;;;;;;5037031;28;20322;-68
2023/02/16 08:39:36;;;;;;;10.60;5.93;;;15.20;58.60;;;;;;5035926;28;20116;-68
2023/02/16 08:42:02;;;;;;;11.13;5.80;;;14.50;59.90;;;;;;5036558;28;20363;-68
2023/02/16 08:44:29;;;;;;;14.50;6.25;;;13.70;59.00;;;;;;5025604;28;20410;-68
2023/02/16 08:46:57;;;;;;;12.90;6.70;;;12.50;62.00;;;;;;5046750;28;20323;-68
2023/02/16 08:49:23;;;;;;;13.02;6.50;;;11.80;63.30;;;;;;5036796;28;20072;-68
2023/02/16 08:51:53;;;;;;;11.02;6.57;;;11.30;65.30;;;;;;5036837;28;20029;-68
2023/02/16 08:54:21;;;;;;;11.02;6.35;;;11.70;65.30;;;;;;5018845;28;20453;-68
2023/02/16 08:56:48;;;;;;;11.20;6.93;;;12.70;62.90;;;;;;5036599;28;20056;-68
2023/02/16 08:59:18;;;;;;;9.55;5.30;;;14.00;61.00;;;;;;5035285;28;20028;-68
2023/02/16 09:01:44;;;;;;;9.18;5.05;;;15.20;58.20;;;;;;5035531;28;20044;-68
2023/02/16 09:04:11;;;;;;;14.48;5.40;;;15.40;56.90;;;;;;5036179;28;20474;-68
2023/02/16 09:06:39;;;;;;;9.85;4.80;;;15.20;56.20;;;;;;5019403;28;20428;-68
2023/02/16 09:09:06;;;;;;;10.23;5.32;;;14.50;57.20;;;;;;5033941;28;20323;-68
2023/02/16 09:11:32;;;;;;;9.13;5.45;;;14.70;57.00;;;;;;5026572;28;20030;-68
2023/02/16 09:13:57;;;;;;;9.07;5.25;;;15.30;57.00;;;;;;5033123;28;20022;-68
2023/02/16 09:16:26;;;;;;;9.00;4.95;;;15.30;56.50;;;;;;5034425;28;20101;-68
2023/02/16 09:18:52;;;;;;;11.20;6.25;;;14.90;56.40;;;;;;5035323;28;20037;-67
2023/02/16 09:21:20;;;;;;;10.73;6.13;;;14.60;56.90;;;;;;5034761;28;20147;-68
2023/02/16 09:23:48;;;;;;;9.77;6.00;;;14.80;56.60;;;;;;5032114;28;20326;-67
2023/02/16 09:26:15;;;;;;;8.82;5.00;;;15.10;56.50;;;;;;5034463;28;20022;-67
2023/02/16 09:28:44;;;;;;;9.60;4.82;;;15.50;55.90;;;;;;5033979;28;20492;-67
2023/02/16 09:31:15;;;;;;;8.90;4.88;;;15.80;55.20;;;;;;5033909;28;20086;-68
2023/02/16 09:33:42;;;;;;;8.40;4.07;;;16.50;54.20;;;;;;5035279;28;20021;-69
2023/02/16 09:36:10;;;;;;;10.13;4.50;;;16.70;53.30;;;;;;5035096;28;20104;-69
2023/02/16 09:38:36;;;;;;;9.93;4.97;;;16.40;52.20;;;;;;5035065;28;20025;-69
2023/02/16 09:41:28;;;;;;;8.80;4.45;;;15.90;53.70;;;;;;5034596;28;20028;-68
2023/02/16 09:43:59;;;;;;;10.05;4.82;;;15.20;54.40;;;;;;5018230;28;20418;-68
2023/02/16 09:46:30;;;;;;;8.93;4.50;;;14.60;54.80;;;;;;5032132;28;20105;-68
2023/02/16 09:48:57;;;;;;;10.77;5.22;;;14.30;55.50;;;;;;5029925;28;20069;-68
2023/02/16 09:51:31;;;;;;;8.15;4.72;;;14.50;55.70;;;;;;5034123;28;20021;-68
2023/02/16 09:54:29;;;;;;;7.20;4.18;;;14.50;55.70;;;;;;5034989;28;20302;-68
2023/02/16 09:57:07;;;;;;;11.80;4.40;;;14.60;55.50;;;;;;5035719;28;20092;-68
2023/02/16 10:00:03;;;;;;;7.40;4.10;;;14.80;54.70;;;;;;5033120;28;20033;-68
2023/02/16 10:02:33;;;;;;;8.00;4.40;;;14.50;55.30;;;;;;5031242;28;20050;-68
2023/02/16 10:05:19;;;;;;;9.07;4.60;;;14.80;55.00;;;;;;5034783;28;20087;-68
2023/02/16 10:07:57;;;;;;;9.13;4.10;;;15.00;54.80;;;;;;5018366;28;20418;-68
2023/02/16 10:10:36;;;;;;;8.57;4.07;;;14.90;55.50;;;;;;5035926;28;20439;-68
2023/02/16 10:13:15;;;;;;;8.68;4.95;;;15.10;55.20;;;;;;5036439;28;20029;-68
2023/02/16 10:15:44;;;;;;;11.05;4.82;;;15.50;54.60;;;;;;5033320;28;20041;-68
2023/02/16 10:18:22;;;;;;;8.60;4.10;;;15.50;54.60;;;;;;5034629;28;20040;-68
2023/02/16 10:20:51;;;;;;;9.18;4.82;;;15.30;55.40;;;;;;5031232;28;20423;-67
2023/02/16 10:23:41;;;;;;;12.82;5.30;;;15.40;54.80;;;;;;5033999;28;20322;-68
2023/02/16 10:26:16;;;;;;;7.85;4.85;;;15.70;55.10;;;;;;5038120;28;20032;-68
2023/02/16 10:28:51;;;;;;;8.38;4.80;;;15.70;54.60;;;;;;5038471;28;20105;-68
2023/02/16 10:31:31;;;;;;;9.32;4.75;;;15.30;55.30;;;;;;5035735;28;20025;-68
2023/02/16 10:34:32;;;;;;;12.05;7.13;;;15.30;55.50;;;;;;5026249;28;20362;-68
2023/02/16 10:37:13;;;;;;;13.20;4.57;;;15.30;55.50;;;;;;5039220;28;20076;-68
2023/02/16 10:39:50;;;;;;;8.90;4.07;;;15.20;55.60;;;;;;5038473;28;20033;-67
2023/02/16 10:42:29;;;;;;;12.13;4.68;;;15.20;55.60;;;;;;5037448;28;20029;-67
2023/02/16 10:45:16;;;;;;;7.82;4.40;;;14.90;56.00;;;;;;5037778;28;20437;-68
2023/02/16 10:47:45;;;;;;;8.13;4.15;;;15.00;56.10;;;;;;5039083;28;20025;-68
2023/02/16 10:50:27;;;;;;;8.27;3.97;;;15.00;56.00;;;;;;5038737;28;20330;-67
2023/02/16 10:53:00;;;;;;;10.52;4.20;;;14.90;55.50;;;;;;5038888;28;20064;-68
2023/02/16 10:55:26;;;;;;;9.68;4.63;;;15.00;56.80;;;;;;5038800;28;20073;-68
2023/02/16 10:57:59;;;;;;;10.52;4.45;;;15.50;55.60;;;;;;5038178;28;20072;-68
2023/02/16 11:00:39;;;;;;;7.93;3.88;;;15.90;55.10;;;;;;5046078;28;20032;-68
2023/02/16 11:03:11;;;;;;;7.70;4.20;;;15.70;55.10;;;;;;5047470;28;20032;-68
2023/02/16 11:05:39;;;;;;;7.60;3.78;;;15.50;54.50;;;;;;5019742;28;20033;-68
2023/02/16 11:08:06;;;;;;;8.80;4.32;;;15.60;55.00;;;;;;5038756;28;20037;-67
2023/02/16 11:10:38;;;;;;;7.30;4.05;;;15.70;55.10;;;;;;5038783;28;20026;-68
2023/02/16 11:13:04;;;;;;;6.78;3.97;;;15.60;54.40;;;;;;5036804;28;20114;-68
2023/02/16 11:15:30;;;;;;;8.70;3.97;;;15.30;55.10;;;;;;5037659;28;20365;-68
2023/02/16 11:18:00;;;;;;;6.97;4.00;;;15.30;55.90;;;;;;5038159;28;20342;-68
2023/02/16 11:20:34;;;;;;;9.23;4.45;;;15.30;55.90;;;;;;5038658;28;20021;-68
2023/02/16 11:23:30;;;;;;;8.68;3.95;;;15.30;55.70;;;;;;5038547;28;20029;-68
2023/02/16 11:26:04;;;;;;;9.40;4.32;;;15.20;56.60;;;;;;5037909;28;20412;-68
2023/02/16 11:28:37;;;;;;;8.68;3.85;;;15.60;56.90;;;;;;5038587;28;20021;-67
2023/02/16 11:31:08;;;;;;;8.13;3.55;;;15.50;55.30;;;;;;5037143;28;20021;-68
2023/02/16 11:33:36;;;;;;;7.13;3.47;;;15.40;56.40;;;;;;5038164;28;20049;-67
2023/02/16 11:36:18;;;;;;;8.65;4.30;;;15.40;56.20;;;;;;5036501;28;20100;-67
2023/02/16 11:39:01;;;;;;;7.95;3.88;;;15.70;55.50;;;;;;5037139;28;20334;-67
2023/02/16 11:41:27;;;;;;;6.75;3.78;;;15.50;55.70;;;;;;5018273;28;20022;-67
2023/02/16 11:43:54;;;;;;;8.95;4.28;;;15.40;54.50;;;;;;5018401;28;20025;-67
2023/02/16 11:46:22;;;;;;;7.25;4.03;;;15.30;55.30;;;;;;5017018;28;20322;-67
2023/02/16 11:48:48;;;;;;;6.50;3.83;;;15.00;54.80;;;;;;5018367;28;20026;-67
2023/02/16 11:51:15;;;;;;;7.28;4.13;;;14.90;55.40;;;;;;5018209;28;20022;-67
2023/02/16 11:53:42;;;;;;;9.90;4.20;;;15.00;55.50;;;;;;5019708;28;20037;-67
2023/02/16 11:56:23;;;;;;;7.07;4.10;;;15.20;55.00;;;;;;5037691;28;20128;-67
2023/02/16 11:59:20;;;;;;;6.88;4.10;;;15.30;55.70;;;;;;5037883;28;20029;-67
2023/02/16 12:02:13;;;;;;;7.90;4.10;;;15.20;54.80;;;;;;5036696;28;20081;-67
2023/02/16 12:04:59;;;;;;;7.68;3.95;;;15.20;55.20;;;;;;5037562;28;20025;-67
2023/02/16 12:07:48;;;;;;;8.35;4.45;;;15.60;55.30;;;;;;5037642;28;20029;-67
2023/02/16 12:10:36;;;;;;;7.63;3.47;;;15.60;55.70;;;;;;5036894;28;20033;-67
2023/02/16 12:13:25;;;;;;;9.05;3.78;;;15.30;55.30;;;;;;5037668;28;20025;-67
2023/02/16 12:16:03;;;;;;;6.95;3.75;;;14.90;55.60;;;;;;5036530;28;20441;-66
2023/02/16 12:18:35;;;;;;;7.30;3.55;;;14.60;57.60;;;;;;5037434;28;20037;-65
2023/02/16 12:21:30;;;;;;;6.82;3.25;;;14.60;56.50;;;;;;5037538;28;20031;-65
2023/02/16 12:24:21;;;;;;;8.55;4.10;;;14.50;56.70;;;;;;5036644;28;20440;-65
2023/02/16 12:27:01;;;;;;;8.40;3.67;;;14.40;56.70;;;;;;5017590;28;20030;-65
2023/02/16 12:29:59;;;;;;;8.73;3.83;;;13.90;56.80;;;;;;5016327;28;20217;-67
2023/02/16 12:32:50;;;;;;;7.78;3.97;;;13.90;58.20;;;;;;5031144;28;20045;-67
2023/02/16 12:35:53;;;;;;;8.40;4.03;;;14.10;57.20;;;;;;5036683;28;20053;-67
2023/02/16 12:38:33;;;;;;;7.10;3.70;;;14.30;57.00;;;;;;5036715;28;20029;-66
2023/02/16 12:41:26;;;;;;;10.43;3.92;;;15.00;56.60;;;;;;5036407;28;20113;-67
2023/02/16 12:43:55;;;;;;;7.75;4.32;;;15.20;55.50;;;;;;5037020;28;20086;-67
2023/02/16 12:46:25;;;;;;;7.88;4.60;;;15.30;55.20;;;;;;5035950;28;20104;-67
2023/02/16 12:49:10;;;;;;;8.43;3.63;;;15.40;55.00;;;;;;5036486;28;20026;-67
2023/02/16 12:51:42;;;;;;;8.18;3.70;;;15.30;54.80;;;;;;5036877;28;20057;-67
2023/02/16 12:54:21;;;;;;;10.50;4.07;;;15.40;55.30;;;;;;5037092;28;20018;-67
2023/02/16 12:57:03;;;;;;;8.55;3.85;;;15.50;56.60;;;;;;5036198;28;20042;-67
2023/02/16 12:59:40;;;;;;;6.75;3.75;;;15.80;56.20;;;;;;5018124;28;20026;-67
2023/02/16 13:02:27;;;;;;;7.43;4.20;;;15.80;55.00;;;;;;5036030;28;20116;-66
2023/02/16 13:05:18;;;;;;;8.43;4.18;;;16.00;55.40;;;;;;5017021;28;20049;-67
2023/02/16 13:07:46;;;;;;;9.40;4.75;;;15.90;55.50;;;;;;5016857;28;20022;-66
2023/02/16 13:10:21;;;;;;;10.80;4.20;;;15.80;55.90;;;;;;5024764;28;20029;-67
2023/02/16 13:13:20;;;;;;;11.13;4.40;;;15.50;55.90;;;;;;5036334;28;20030;-67
2023/02/16 13:16:16;;;;;;;9.25;4.65;;;15.20;56.40;;;;;;5030399;28;20426;-67
2023/02/16 13:18:45;;;;;;;8.82;4.15;;;15.00;57.00;;;;;;5036461;28;20049;-66
2023/02/16 13:21:20;;;;;;;7.85;3.80;;;14.70;57.00;;;;;;5036427;28;20112;-67
2023/02/16 13:24:15;;;;;;;8.75;4.38;;;14.40;58.50;;;;;;5036174;28;20034;-66
2023/02/16 13:27:11;;;;;;;8.02;4.18;;;14.10;58.90;;;;;;5016532;28;20381;-67
2023/02/16 13:30:04;;;;;;;8.75;4.38;;;14.20;59.20;;;;;;5015199;28;20024;-67
2023/02/16 13:32:45;;;;;;;8.48;4.30;;;14.30;59.30;;;;;;5022119;28;20029;-66
2023/02/16 13:35:28;;;;;;;8.10;3.80;;;14.40;59.10;;;;;;5036346;28;20430;-67
2023/02/16 13:38:27;;;;;;;8.23;4.10;;;14.50;59.70;;;;;;5035501;28;20039;-67
2023/02/16 13:41:30;;;;;;;7.43;4.10;;;14.80;58.80;;;;;;5036042;28;20025;-66
2023/02/16 13:44:11;;;;;;;9.00;4.13;;;14.70;59.20;;;;;;5034334;28;20041;-66
2023/02/16 13:46:41;;;;;;;7.78;4.47;;;14.30;59.70;;;;;;5035766;28;20025;-66
2023/02/16 13:49:32;;;;;;;8.50;4.70;;;14.10;60.00;;;;;;5035829;28;20037;-66